sensor_id;sensor_type;location;lat;lon;timestamp;P1;durP1;ratioP1;P2;durP2;ratioP2
58360;SDS011;44164;44.954;10.068;2023-02-11T00:01:31;7.10;;;5.95;;
58360;SDS011;44164;44.954;10.068;2023-02-11T00:03:59;7.78;;;5.55;;
58360;SDS011;44164;44.954;10.068;2023-02-11T00:06:27;7.75;;;5.60;;
58360;SDS011;44164;44.954;10.068;2023-02-11T00:08:54;6.05;;;5.40;;
58360;SDS011;44164;44.954;10.068;2023-02-11T00:11:21;7.18;;;5.65;;
58360;SDS011;44164;44.954;10.068;2023-02-11T00:13:50;7.03;;;5.30;;
58360;SDS011;44164;44.954;10.068;2023-02-11T00:16:18;7.45;;;6.00;;
58360;SDS011;44164;44.954;10.068;2023-02-11T00:18:45;7.55;;;6.03;;
58360;SDS011;44164;44.954;10.068;2023-02-11T00:21:12;7.38;;;5.35;;
58360;SDS011;44164;44.954;10.068;2023-02-11T00:23:40;6.35;;;5.07;;
58360;SDS011;44164;44.954;10.068;2023-02-11T00:28:46;9.48;;;6.20;;
58360;SDS011;44164;44.954;10.068;2023-02-11T00:31:13;6.60;;;5.75;;
58360;SDS011;44164;44.954;10.068;2023-02-11T00:33:40;7.20;;;5.65;;
58360;SDS011;44164;44.954;10.068;2023-02-11T00:36:14;7.20;;;5.90;;
58360;SDS011;44164;44.954;10.068;2023-02-11T00:38:51;7.05;;;5.55;;
58360;SDS011;44164;44.954;10.068;2023-02-11T00:41:18;7.27;;;5.40;;
58360;SDS011;44164;44.954;10.068;2023-02-11T00:43:45;6.80;;;6.10;;
58360;SDS011;44164;44.954;10.068;2023-02-11T00:46:11;6.60;;;5.80;;
58360;SDS011;44164;44.954;10.068;2023-02-11T00:48:38;6.75;;;5.55;;
58360;SDS011;44164;44.954;10.068;2023-02-11T00:51:04;7.03;;;5.85;;
58360;SDS011;44164;44.954;10.068;2023-02-11T00:53:31;7.78;;;6.00;;
58360;SDS011;44164;44.954;10.068;2023-02-11T00:55:58;6.43;;;5.22;;
58360;SDS011;44164;44.954;10.068;2023-02-11T00:58:26;6.97;;;5.63;;
58360;SDS011;44164;44.954;10.068;2023-02-11T01:00:53;6.13;;;5.15;;
58360;SDS011;44164;44.954;10.068;2023-02-11T01:03:20;7.00;;;5.75;;
58360;SDS011;44164;44.954;10.068;2023-02-11T01:05:47;7.25;;;5.70;;
58360;SDS011;44164;44.954;10.068;2023-02-11T01:08:51;5.82;;;5.22;;
58360;SDS011;44164;44.954;10.068;2023-02-11T01:11:18;8.45;;;6.00;;
58360;SDS011;44164;44.954;10.068;2023-02-11T01:13:45;6.28;;;5.32;;
58360;SDS011;44164;44.954;10.068;2023-02-11T01:16:13;6.90;;;5.90;;
58360;SDS011;44164;44.954;10.068;2023-02-11T01:18:39;9.02;;;6.30;;
58360;SDS011;44164;44.954;10.068;2023-02-11T01:21:21;7.10;;;5.20;;
58360;SDS011;44164;44.954;10.068;2023-02-11T01:23:49;6.45;;;5.63;;
58360;SDS011;44164;44.954;10.068;2023-02-11T01:26:16;7.85;;;5.82;;
58360;SDS011;44164;44.954;10.068;2023-02-11T01:28:42;7.78;;;5.63;;
58360;SDS011;44164;44.954;10.068;2023-02-11T01:31:08;7.03;;;5.40;;
58360;SDS011;44164;44.954;10.068;2023-02-11T01:33:34;6.35;;;5.32;;
58360;SDS011;44164;44.954;10.068;2023-02-11T01:36:01;7.75;;;6.35;;
58360;SDS011;44164;44.954;10.068;2023-02-11T01:38:28;6.75;;;5.05;;
58360;SDS011;44164;44.954;10.068;2023-02-11T01:40:56;7.22;;;6.00;;
58360;SDS011;44164;44.954;10.068;2023-02-11T01:43:24;6.35;;;5.28;;
58360;SDS011;44164;44.954;10.068;2023-02-11T01:45:59;6.40;;;5.70;;
58360;SDS011;44164;44.954;10.068;2023-02-11T01:50:58;7.22;;;5.68;;
58360;SDS011;44164;44.954;10.068;2023-02-11T01:53:28;6.88;;;5.88;;
58360;SDS011;44164;44.954;10.068;2023-02-11T01:56:13;7.82;;;6.05;;
58360;SDS011;44164;44.954;10.068;2023-02-11T01:59:00;7.80;;;6.20;;
58360;SDS011;44164;44.954;10.068;2023-02-11T02:01:29;6.85;;;5.28;;
58360;SDS011;44164;44.954;10.068;2023-02-11T02:03:58;5.95;;;5.25;;
58360;SDS011;44164;44.954;10.068;2023-02-11T02:06:33;7.03;;;6.18;;
58360;SDS011;44164;44.954;10.068;2023-02-11T02:09:08;7.15;;;5.38;;
58360;SDS011;44164;44.954;10.068;2023-02-11T02:11:38;8.50;;;5.90;;
58360;SDS011;44164;44.954;10.068;2023-02-11T02:14:04;6.60;;;5.55;;
58360;SDS011;44164;44.954;10.068;2023-02-11T02:16:32;6.72;;;5.82;;
58360;SDS011;44164;44.954;10.068;2023-02-11T02:19:15;7.32;;;5.78;;
58360;SDS011;44164;44.954;10.068;2023-02-11T02:41:10;5.88;;;5.00;;
58360;SDS011;44164;44.954;10.068;2023-02-11T02:43:40;5.93;;;4.70;;
58360;SDS011;44164;44.954;10.068;2023-02-11T02:46:27;8.60;;;5.10;;
58360;SDS011;44164;44.954;10.068;2023-02-11T02:48:55;6.57;;;4.93;;
58360;SDS011;44164;44.954;10.068;2023-02-11T02:56:43;7.40;;;5.40;;
58360;SDS011;44164;44.954;10.068;2023-02-11T03:01:50;6.35;;;5.47;;
58360;SDS011;44164;44.954;10.068;2023-02-11T03:07:02;6.30;;;5.20;;
58360;SDS011;44164;44.954;10.068;2023-02-11T03:12:09;5.82;;;5.10;;
58360;SDS011;44164;44.954;10.068;2023-02-11T03:14:36;7.32;;;5.45;;
58360;SDS011;44164;44.954;10.068;2023-02-11T03:17:03;7.50;;;5.00;;
58360;SDS011;44164;44.954;10.068;2023-02-11T03:19:32;5.90;;;5.00;;
58360;SDS011;44164;44.954;10.068;2023-02-11T03:22:02;5.68;;;4.70;;
58360;SDS011;44164;44.954;10.068;2023-02-11T03:24:33;5.60;;;4.57;;
58360;SDS011;44164;44.954;10.068;2023-02-11T03:27:01;5.82;;;4.85;;
58360;SDS011;44164;44.954;10.068;2023-02-11T03:29:37;6.85;;;4.93;;
58360;SDS011;44164;44.954;10.068;2023-02-11T03:37:50;6.80;;;5.32;;
58360;SDS011;44164;44.954;10.068;2023-02-11T03:40:26;6.78;;;4.47;;
58360;SDS011;44164;44.954;10.068;2023-02-11T03:43:11;6.32;;;5.40;;
58360;SDS011;44164;44.954;10.068;2023-02-11T03:45:41;6.50;;;5.72;;
58360;SDS011;44164;44.954;10.068;2023-02-11T03:48:17;6.20;;;4.85;;
58360;SDS011;44164;44.954;10.068;2023-02-11T03:50:45;7.82;;;5.78;;
58360;SDS011;44164;44.954;10.068;2023-02-11T03:53:13;6.10;;;4.85;;
58360;SDS011;44164;44.954;10.068;2023-02-11T03:55:40;5.38;;;4.80;;
58360;SDS011;44164;44.954;10.068;2023-02-11T03:58:07;6.80;;;5.57;;
58360;SDS011;44164;44.954;10.068;2023-02-11T04:00:35;9.23;;;6.03;;
58360;SDS011;44164;44.954;10.068;2023-02-11T04:03:04;6.65;;;5.10;;
58360;SDS011;44164;44.954;10.068;2023-02-11T04:05:30;6.57;;;5.40;;
58360;SDS011;44164;44.954;10.068;2023-02-11T04:07:57;6.72;;;4.85;;
58360;SDS011;44164;44.954;10.068;2023-02-11T04:10:24;6.63;;;5.70;;
58360;SDS011;44164;44.954;10.068;2023-02-11T04:12:50;6.93;;;5.28;;
58360;SDS011;44164;44.954;10.068;2023-02-11T04:15:16;6.25;;;5.30;;
58360;SDS011;44164;44.954;10.068;2023-02-11T04:17:42;7.47;;;5.78;;
58360;SDS011;44164;44.954;10.068;2023-02-11T04:20:09;7.68;;;5.68;;
58360;SDS011;44164;44.954;10.068;2023-02-11T04:22:35;5.90;;;4.72;;
58360;SDS011;44164;44.954;10.068;2023-02-11T04:25:02;6.25;;;5.13;;
58360;SDS011;44164;44.954;10.068;2023-02-11T04:27:29;5.57;;;4.95;;
58360;SDS011;44164;44.954;10.068;2023-02-11T04:29:55;6.43;;;5.63;;
58360;SDS011;44164;44.954;10.068;2023-02-11T04:32:22;6.65;;;5.55;;
58360;SDS011;44164;44.954;10.068;2023-02-11T04:34:48;5.80;;;4.75;;
58360;SDS011;44164;44.954;10.068;2023-02-11T04:37:14;6.68;;;5.18;;
58360;SDS011;44164;44.954;10.068;2023-02-11T04:39:40;6.35;;;5.30;;
58360;SDS011;44164;44.954;10.068;2023-02-11T04:42:06;6.15;;;5.13;;
58360;SDS011;44164;44.954;10.068;2023-02-11T04:44:32;6.32;;;4.72;;
58360;SDS011;44164;44.954;10.068;2023-02-11T04:46:59;6.40;;;5.20;;
58360;SDS011;44164;44.954;10.068;2023-02-11T04:49:25;7.82;;;5.75;;
58360;SDS011;44164;44.954;10.068;2023-02-11T04:51:51;5.78;;;4.80;;
58360;SDS011;44164;44.954;10.068;2023-02-11T04:54:17;7.60;;;5.15;;
58360;SDS011;44164;44.954;10.068;2023-02-11T04:56:43;7.03;;;5.57;;
58360;SDS011;44164;44.954;10.068;2023-02-11T04:59:09;7.68;;;5.60;;
58360;SDS011;44164;44.954;10.068;2023-02-11T05:01:37;5.15;;;4.53;;
58360;SDS011;44164;44.954;10.068;2023-02-11T05:04:04;7.18;;;5.88;;
58360;SDS011;44164;44.954;10.068;2023-02-11T05:06:30;7.47;;;6.25;;
58360;SDS011;44164;44.954;10.068;2023-02-11T05:08:56;7.57;;;5.78;;
58360;SDS011;44164;44.954;10.068;2023-02-11T05:11:23;6.60;;;5.40;;
58360;SDS011;44164;44.954;10.068;2023-02-11T05:13:50;6.32;;;5.13;;
58360;SDS011;44164;44.954;10.068;2023-02-11T05:16:16;5.70;;;5.00;;
58360;SDS011;44164;44.954;10.068;2023-02-11T05:18:43;5.95;;;5.00;;
58360;SDS011;44164;44.954;10.068;2023-02-11T05:21:14;6.32;;;5.22;;
58360;SDS011;44164;44.954;10.068;2023-02-11T05:23:42;6.82;;;5.85;;
58360;SDS011;44164;44.954;10.068;2023-02-11T05:26:08;8.23;;;5.80;;
58360;SDS011;44164;44.954;10.068;2023-02-11T05:28:36;7.22;;;5.50;;
58360;SDS011;44164;44.954;10.068;2023-02-11T05:31:03;5.38;;;4.85;;
58360;SDS011;44164;44.954;10.068;2023-02-11T05:33:29;7.15;;;5.22;;
58360;SDS011;44164;44.954;10.068;2023-02-11T05:35:59;6.70;;;5.20;;
58360;SDS011;44164;44.954;10.068;2023-02-11T05:38:26;7.60;;;5.10;;
58360;SDS011;44164;44.954;10.068;2023-02-11T05:40:52;7.35;;;5.25;;
58360;SDS011;44164;44.954;10.068;2023-02-11T05:43:18;5.30;;;4.40;;
58360;SDS011;44164;44.954;10.068;2023-02-11T05:45:45;7.50;;;5.07;;
58360;SDS011;44164;44.954;10.068;2023-02-11T05:48:11;7.07;;;5.43;;
58360;SDS011;44164;44.954;10.068;2023-02-11T05:50:37;7.28;;;5.55;;
58360;SDS011;44164;44.954;10.068;2023-02-11T05:53:03;6.45;;;5.63;;
58360;SDS011;44164;44.954;10.068;2023-02-11T05:55:30;6.65;;;5.18;;
58360;SDS011;44164;44.954;10.068;2023-02-11T05:57:56;7.18;;;5.40;;
58360;SDS011;44164;44.954;10.068;2023-02-11T06:00:22;7.35;;;5.82;;
58360;SDS011;44164;44.954;10.068;2023-02-11T06:02:49;9.23;;;5.10;;
58360;SDS011;44164;44.954;10.068;2023-02-11T06:05:15;6.80;;;4.82;;
58360;SDS011;44164;44.954;10.068;2023-02-11T06:07:41;6.10;;;5.00;;
58360;SDS011;44164;44.954;10.068;2023-02-11T06:10:07;6.50;;;4.97;;
58360;SDS011;44164;44.954;10.068;2023-02-11T06:12:35;5.80;;;4.63;;
58360;SDS011;44164;44.954;10.068;2023-02-11T06:15:01;6.93;;;5.27;;
58360;SDS011;44164;44.954;10.068;2023-02-11T06:17:28;6.88;;;5.25;;
58360;SDS011;44164;44.954;10.068;2023-02-11T06:20:02;5.97;;;5.07;;
58360;SDS011;44164;44.954;10.068;2023-02-11T06:22:29;6.97;;;5.10;;
58360;SDS011;44164;44.954;10.068;2023-02-11T06:24:55;6.70;;;5.15;;
58360;SDS011;44164;44.954;10.068;2023-02-11T06:27:22;5.97;;;4.53;;
58360;SDS011;44164;44.954;10.068;2023-02-11T06:29:48;6.80;;;5.68;;
58360;SDS011;44164;44.954;10.068;2023-02-11T06:32:17;5.88;;;5.05;;
58360;SDS011;44164;44.954;10.068;2023-02-11T06:34:43;5.95;;;5.10;;
58360;SDS011;44164;44.954;10.068;2023-02-11T06:37:10;7.00;;;5.00;;
58360;SDS011;44164;44.954;10.068;2023-02-11T06:39:36;6.05;;;5.35;;
58360;SDS011;44164;44.954;10.068;2023-02-11T06:42:02;6.00;;;5.05;;
58360;SDS011;44164;44.954;10.068;2023-02-11T06:44:28;8.43;;;5.45;;
58360;SDS011;44164;44.954;10.068;2023-02-11T06:46:55;7.20;;;5.05;;
58360;SDS011;44164;44.954;10.068;2023-02-11T06:49:21;6.55;;;5.50;;
58360;SDS011;44164;44.954;10.068;2023-02-11T06:51:47;6.72;;;5.57;;
58360;SDS011;44164;44.954;10.068;2023-02-11T06:54:13;9.15;;;5.30;;
58360;SDS011;44164;44.954;10.068;2023-02-11T06:56:39;7.60;;;5.55;;
58360;SDS011;44164;44.954;10.068;2023-02-11T06:59:06;6.78;;;5.07;;
58360;SDS011;44164;44.954;10.068;2023-02-11T07:01:32;6.80;;;4.72;;
58360;SDS011;44164;44.954;10.068;2023-02-11T07:03:58;6.22;;;4.82;;
58360;SDS011;44164;44.954;10.068;2023-02-11T07:06:25;7.95;;;5.20;;
58360;SDS011;44164;44.954;10.068;2023-02-11T07:08:54;6.25;;;4.88;;
58360;SDS011;44164;44.954;10.068;2023-02-11T07:11:22;8.40;;;5.07;;
58360;SDS011;44164;44.954;10.068;2023-02-11T07:13:50;6.55;;;4.93;;
58360;SDS011;44164;44.954;10.068;2023-02-11T07:16:17;7.50;;;5.35;;
58360;SDS011;44164;44.954;10.068;2023-02-11T07:18:44;8.73;;;5.07;;
58360;SDS011;44164;44.954;10.068;2023-02-11T07:21:11;7.13;;;4.60;;
58360;SDS011;44164;44.954;10.068;2023-02-11T07:23:38;4.78;;;4.03;;
58360;SDS011;44164;44.954;10.068;2023-02-11T07:26:06;5.32;;;4.20;;
58360;SDS011;44164;44.954;10.068;2023-02-11T07:28:35;5.78;;;4.85;;
58360;SDS011;44164;44.954;10.068;2023-02-11T07:31:11;6.75;;;4.80;;
58360;SDS011;44164;44.954;10.068;2023-02-11T07:33:45;6.10;;;4.88;;
58360;SDS011;44164;44.954;10.068;2023-02-11T07:36:12;8.52;;;4.60;;
58360;SDS011;44164;44.954;10.068;2023-02-11T07:38:39;6.78;;;4.85;;
58360;SDS011;44164;44.954;10.068;2023-02-11T07:41:07;8.95;;;5.55;;
58360;SDS011;44164;44.954;10.068;2023-02-11T07:43:37;7.40;;;4.88;;
58360;SDS011;44164;44.954;10.068;2023-02-11T07:46:11;5.00;;;4.32;;
58360;SDS011;44164;44.954;10.068;2023-02-11T07:48:39;4.70;;;4.20;;
58360;SDS011;44164;44.954;10.068;2023-02-11T07:53:41;6.47;;;4.40;;
58360;SDS011;44164;44.954;10.068;2023-02-11T07:56:09;6.15;;;4.38;;
58360;SDS011;44164;44.954;10.068;2023-02-11T07:58:35;6.47;;;4.63;;
58360;SDS011;44164;44.954;10.068;2023-02-11T08:01:02;7.75;;;4.68;;
58360;SDS011;44164;44.954;10.068;2023-02-11T08:03:30;5.57;;;4.35;;
58360;SDS011;44164;44.954;10.068;2023-02-11T08:05:57;6.10;;;4.60;;
58360;SDS011;44164;44.954;10.068;2023-02-11T08:08:26;5.50;;;4.53;;
58360;SDS011;44164;44.954;10.068;2023-02-11T08:10:52;5.82;;;4.60;;
58360;SDS011;44164;44.954;10.068;2023-02-11T08:13:18;4.85;;;3.80;;
58360;SDS011;44164;44.954;10.068;2023-02-11T08:15:45;7.30;;;4.15;;
58360;SDS011;44164;44.954;10.068;2023-02-11T08:18:11;5.90;;;4.10;;
58360;SDS011;44164;44.954;10.068;2023-02-11T08:20:37;6.82;;;4.25;;
58360;SDS011;44164;44.954;10.068;2023-02-11T08:23:04;6.65;;;4.22;;
58360;SDS011;44164;44.954;10.068;2023-02-11T08:27:57;5.63;;;4.13;;
58360;SDS011;44164;44.954;10.068;2023-02-11T08:30:23;6.00;;;5.03;;
58360;SDS011;44164;44.954;10.068;2023-02-11T08:32:50;5.10;;;3.80;;
58360;SDS011;44164;44.954;10.068;2023-02-11T08:35:16;4.50;;;3.65;;
58360;SDS011;44164;44.954;10.068;2023-02-11T08:37:42;5.40;;;4.43;;
58360;SDS011;44164;44.954;10.068;2023-02-11T08:40:08;5.15;;;3.80;;
58360;SDS011;44164;44.954;10.068;2023-02-11T08:42:34;5.20;;;4.38;;
58360;SDS011;44164;44.954;10.068;2023-02-11T08:45:00;4.85;;;4.00;;
58360;SDS011;44164;44.954;10.068;2023-02-11T08:47:27;5.55;;;4.38;;
58360;SDS011;44164;44.954;10.068;2023-02-11T08:49:53;5.60;;;4.03;;
58360;SDS011;44164;44.954;10.068;2023-02-11T08:52:19;4.95;;;3.58;;
58360;SDS011;44164;44.954;10.068;2023-02-11T08:54:46;5.05;;;3.83;;
58360;SDS011;44164;44.954;10.068;2023-02-11T08:57:13;5.18;;;3.78;;
58360;SDS011;44164;44.954;10.068;2023-02-11T08:59:39;4.80;;;3.92;;
58360;SDS011;44164;44.954;10.068;2023-02-11T09:02:05;5.75;;;3.95;;
58360;SDS011;44164;44.954;10.068;2023-02-11T09:04:32;4.90;;;3.75;;
58360;SDS011;44164;44.954;10.068;2023-02-11T09:06:58;5.20;;;3.92;;
58360;SDS011;44164;44.954;10.068;2023-02-11T09:09:24;5.45;;;3.67;;
58360;SDS011;44164;44.954;10.068;2023-02-11T09:11:50;4.28;;;3.47;;
58360;SDS011;44164;44.954;10.068;2023-02-11T09:14:18;5.18;;;3.33;;
58360;SDS011;44164;44.954;10.068;2023-02-11T09:16:46;4.95;;;3.28;;
58360;SDS011;44164;44.954;10.068;2023-02-11T09:19:12;5.43;;;3.67;;
58360;SDS011;44164;44.954;10.068;2023-02-11T09:21:39;5.53;;;4.15;;
58360;SDS011;44164;44.954;10.068;2023-02-11T09:24:05;5.30;;;3.10;;
58360;SDS011;44164;44.954;10.068;2023-02-11T09:26:32;4.75;;;3.50;;
58360;SDS011;44164;44.954;10.068;2023-02-11T09:29:00;5.00;;;3.63;;
58360;SDS011;44164;44.954;10.068;2023-02-11T09:31:28;4.38;;;3.55;;
58360;SDS011;44164;44.954;10.068;2023-02-11T09:33:56;4.18;;;3.35;;
58360;SDS011;44164;44.954;10.068;2023-02-11T09:36:25;4.25;;;3.28;;
58360;SDS011;44164;44.954;10.068;2023-02-11T09:38:53;5.18;;;3.20;;
58360;SDS011;44164;44.954;10.068;2023-02-11T09:41:26;4.47;;;3.10;;
58360;SDS011;44164;44.954;10.068;2023-02-11T09:44:01;4.43;;;3.17;;
58360;SDS011;44164;44.954;10.068;2023-02-11T09:46:30;5.28;;;3.53;;
58360;SDS011;44164;44.954;10.068;2023-02-11T09:48:59;4.10;;;3.15;;
58360;SDS011;44164;44.954;10.068;2023-02-11T09:54:02;4.93;;;3.40;;
58360;SDS011;44164;44.954;10.068;2023-02-11T09:56:34;3.72;;;3.22;;
58360;SDS011;44164;44.954;10.068;2023-02-11T09:59:01;4.70;;;3.15;;
58360;SDS011;44164;44.954;10.068;2023-02-11T10:08:22;3.97;;;3.20;;
58360;SDS011;44164;44.954;10.068;2023-02-11T10:16:08;4.63;;;3.28;;
58360;SDS011;44164;44.954;10.068;2023-02-11T10:19:28;4.93;;;3.40;;
58360;SDS011;44164;44.954;10.068;2023-02-11T10:24:26;4.60;;;3.42;;
58360;SDS011;44164;44.954;10.068;2023-02-11T10:26:53;4.28;;;3.03;;
58360;SDS011;44164;44.954;10.068;2023-02-11T10:31:55;5.05;;;3.63;;
58360;SDS011;44164;44.954;10.068;2023-02-11T10:34:22;5.10;;;3.97;;
58360;SDS011;44164;44.954;10.068;2023-02-11T10:36:48;4.38;;;3.70;;
58360;SDS011;44164;44.954;10.068;2023-02-11T10:39:18;5.10;;;3.83;;
58360;SDS011;44164;44.954;10.068;2023-02-11T10:41:50;4.38;;;3.40;;
58360;SDS011;44164;44.954;10.068;2023-02-11T10:44:21;4.53;;;3.20;;
58360;SDS011;44164;44.954;10.068;2023-02-11T10:46:56;4.55;;;3.40;;
58360;SDS011;44164;44.954;10.068;2023-02-11T10:49:37;4.28;;;3.17;;
58360;SDS011;44164;44.954;10.068;2023-02-11T10:54:38;4.63;;;3.38;;
58360;SDS011;44164;44.954;10.068;2023-02-11T10:57:05;4.03;;;3.35;;
58360;SDS011;44164;44.954;10.068;2023-02-11T10:59:33;4.68;;;3.40;;
58360;SDS011;44164;44.954;10.068;2023-02-11T11:02:05;4.38;;;3.50;;
58360;SDS011;44164;44.954;10.068;2023-02-11T11:04:46;4.75;;;3.72;;
58360;SDS011;44164;44.954;10.068;2023-02-11T11:07:25;4.05;;;3.45;;
58360;SDS011;44164;44.954;10.068;2023-02-11T11:09:57;4.70;;;3.30;;
58360;SDS011;44164;44.954;10.068;2023-02-11T11:17:47;4.38;;;3.80;;
58360;SDS011;44164;44.954;10.068;2023-02-11T11:20:15;4.28;;;2.95;;
58360;SDS011;44164;44.954;10.068;2023-02-11T11:23:15;7.32;;;4.15;;
58360;SDS011;44164;44.954;10.068;2023-02-11T11:25:42;4.38;;;3.53;;
58360;SDS011;44164;44.954;10.068;2023-02-11T11:28:35;3.85;;;3.13;;
58360;SDS011;44164;44.954;10.068;2023-02-11T11:31:12;4.13;;;3.47;;
58360;SDS011;44164;44.954;10.068;2023-02-11T11:33:40;4.03;;;3.00;;
58360;SDS011;44164;44.954;10.068;2023-02-11T11:36:09;4.72;;;3.83;;
58360;SDS011;44164;44.954;10.068;2023-02-11T11:38:42;3.83;;;3.03;;
58360;SDS011;44164;44.954;10.068;2023-02-11T11:46:29;5.18;;;3.60;;
58360;SDS011;44164;44.954;10.068;2023-02-11T11:49:06;4.18;;;3.05;;
58360;SDS011;44164;44.954;10.068;2023-02-11T11:51:50;4.50;;;3.50;;
58360;SDS011;44164;44.954;10.068;2023-02-11T11:54:22;4.50;;;3.42;;
58360;SDS011;44164;44.954;10.068;2023-02-11T11:56:52;5.43;;;3.47;;
58360;SDS011;44164;44.954;10.068;2023-02-11T11:59:23;3.88;;;3.05;;
58360;SDS011;44164;44.954;10.068;2023-02-11T12:04:56;4.35;;;3.10;;
58360;SDS011;44164;44.954;10.068;2023-02-11T12:07:37;4.90;;;3.28;;
58360;SDS011;44164;44.954;10.068;2023-02-11T12:40:02;4.55;;;3.55;;
58360;SDS011;44164;44.954;10.068;2023-02-11T12:42:33;6.18;;;3.58;;
58360;SDS011;44164;44.954;10.068;2023-02-11T12:45:43;5.90;;;3.63;;
58360;SDS011;44164;44.954;10.068;2023-02-11T12:50:56;5.03;;;3.60;;
58360;SDS011;44164;44.954;10.068;2023-02-11T12:56:01;4.47;;;3.42;;
58360;SDS011;44164;44.954;10.068;2023-02-11T12:58:31;3.53;;;3.10;;
58360;SDS011;44164;44.954;10.068;2023-02-11T13:01:02;4.90;;;3.65;;
58360;SDS011;44164;44.954;10.068;2023-02-11T13:03:36;4.38;;;3.40;;
58360;SDS011;44164;44.954;10.068;2023-02-11T13:06:09;4.43;;;3.38;;
58360;SDS011;44164;44.954;10.068;2023-02-11T13:08:58;5.22;;;3.85;;
58360;SDS011;44164;44.954;10.068;2023-02-11T13:13:59;4.90;;;3.53;;
58360;SDS011;44164;44.954;10.068;2023-02-11T13:22:07;4.50;;;3.15;;
58360;SDS011;44164;44.954;10.068;2023-02-11T13:24:50;6.32;;;4.00;;
58360;SDS011;44164;44.954;10.068;2023-02-11T13:38:21;4.47;;;3.08;;
58360;SDS011;44164;44.954;10.068;2023-02-11T13:43:44;4.40;;;3.50;;
58360;SDS011;44164;44.954;10.068;2023-02-11T13:46:26;5.00;;;3.50;;
58360;SDS011;44164;44.954;10.068;2023-02-11T13:48:54;4.88;;;3.58;;
58360;SDS011;44164;44.954;10.068;2023-02-11T13:51:35;6.28;;;3.60;;
58360;SDS011;44164;44.954;10.068;2023-02-11T13:54:02;4.35;;;3.17;;
58360;SDS011;44164;44.954;10.068;2023-02-11T13:59:06;5.78;;;3.65;;
58360;SDS011;44164;44.954;10.068;2023-02-11T14:10:55;4.07;;;3.40;;
58360;SDS011;44164;44.954;10.068;2023-02-11T14:13:36;4.28;;;3.05;;
58360;SDS011;44164;44.954;10.068;2023-02-11T14:16:28;4.55;;;3.85;;
58360;SDS011;44164;44.954;10.068;2023-02-11T14:21:21;4.95;;;3.63;;
58360;SDS011;44164;44.954;10.068;2023-02-11T14:29:17;4.57;;;3.58;;
58360;SDS011;44164;44.954;10.068;2023-02-11T14:31:57;5.30;;;3.33;;
58360;SDS011;44164;44.954;10.068;2023-02-11T14:40:21;4.05;;;3.00;;
58360;SDS011;44164;44.954;10.068;2023-02-11T14:42:52;5.28;;;3.42;;
58360;SDS011;44164;44.954;10.068;2023-02-11T14:45:22;3.93;;;3.30;;
58360;SDS011;44164;44.954;10.068;2023-02-11T14:47:58;4.40;;;3.20;;
58360;SDS011;44164;44.954;10.068;2023-02-11T14:53:15;4.07;;;2.83;;
58360;SDS011;44164;44.954;10.068;2023-02-11T14:55:44;3.40;;;2.88;;
58360;SDS011;44164;44.954;10.068;2023-02-11T14:58:19;4.03;;;3.10;;
58360;SDS011;44164;44.954;10.068;2023-02-11T15:06:31;5.63;;;3.15;;
58360;SDS011;44164;44.954;10.068;2023-02-11T15:09:03;4.10;;;3.10;;
58360;SDS011;44164;44.954;10.068;2023-02-11T15:11:32;3.28;;;2.78;;
58360;SDS011;44164;44.954;10.068;2023-02-11T15:14:33;4.30;;;3.63;;
58360;SDS011;44164;44.954;10.068;2023-02-11T15:16:57;4.28;;;3.30;;
58360;SDS011;44164;44.954;10.068;2023-02-11T15:19:28;4.13;;;3.13;;
58360;SDS011;44164;44.954;10.068;2023-02-11T15:21:56;3.58;;;2.70;;
58360;SDS011;44164;44.954;10.068;2023-02-11T15:24:25;4.13;;;3.33;;
58360;SDS011;44164;44.954;10.068;2023-02-11T15:29:25;5.65;;;2.97;;
58360;SDS011;44164;44.954;10.068;2023-02-11T15:32:03;3.50;;;2.80;;
58360;SDS011;44164;44.954;10.068;2023-02-11T15:34:30;3.60;;;2.78;;
58360;SDS011;44164;44.954;10.068;2023-02-11T15:36:57;3.72;;;2.72;;
58360;SDS011;44164;44.954;10.068;2023-02-11T15:39:28;3.40;;;2.97;;
58360;SDS011;44164;44.954;10.068;2023-02-11T15:42:14;4.18;;;2.70;;
58360;SDS011;44164;44.954;10.068;2023-02-11T15:45:07;4.30;;;3.00;;
58360;SDS011;44164;44.954;10.068;2023-02-11T15:47:36;4.47;;;3.20;;
58360;SDS011;44164;44.954;10.068;2023-02-11T15:50:03;4.32;;;3.17;;
58360;SDS011;44164;44.954;10.068;2023-02-11T15:52:30;3.67;;;2.87;;
58360;SDS011;44164;44.954;10.068;2023-02-11T15:54:58;4.05;;;3.42;;
58360;SDS011;44164;44.954;10.068;2023-02-11T15:57:26;4.45;;;2.95;;
58360;SDS011;44164;44.954;10.068;2023-02-11T15:59:53;8.65;;;4.00;;
58360;SDS011;44164;44.954;10.068;2023-02-11T16:04:57;3.50;;;2.50;;
58360;SDS011;44164;44.954;10.068;2023-02-11T16:12:49;3.92;;;2.95;;
58360;SDS011;44164;44.954;10.068;2023-02-11T16:15:55;4.50;;;3.40;;
58360;SDS011;44164;44.954;10.068;2023-02-11T16:18:33;3.67;;;2.85;;
58360;SDS011;44164;44.954;10.068;2023-02-11T16:21:01;4.13;;;3.22;;
58360;SDS011;44164;44.954;10.068;2023-02-11T16:23:33;3.85;;;3.00;;
58360;SDS011;44164;44.954;10.068;2023-02-11T16:26:23;3.83;;;2.92;;
58360;SDS011;44164;44.954;10.068;2023-02-11T16:28:49;4.65;;;3.38;;
58360;SDS011;44164;44.954;10.068;2023-02-11T16:31:16;4.03;;;3.28;;
58360;SDS011;44164;44.954;10.068;2023-02-11T16:33:42;4.97;;;3.60;;
58360;SDS011;44164;44.954;10.068;2023-02-11T16:36:09;4.43;;;3.72;;
58360;SDS011;44164;44.954;10.068;2023-02-11T16:38:37;5.47;;;3.67;;
58360;SDS011;44164;44.954;10.068;2023-02-11T16:41:03;3.83;;;3.13;;
58360;SDS011;44164;44.954;10.068;2023-02-11T16:43:29;3.70;;;3.20;;
58360;SDS011;44164;44.954;10.068;2023-02-11T16:45:56;3.55;;;2.97;;
58360;SDS011;44164;44.954;10.068;2023-02-11T16:48:23;4.95;;;3.20;;
58360;SDS011;44164;44.954;10.068;2023-02-11T16:50:49;4.13;;;3.47;;
58360;SDS011;44164;44.954;10.068;2023-02-11T16:53:17;4.72;;;3.78;;
58360;SDS011;44164;44.954;10.068;2023-02-11T16:55:45;4.68;;;3.65;;
58360;SDS011;44164;44.954;10.068;2023-02-11T16:58:11;4.60;;;3.58;;
58360;SDS011;44164;44.954;10.068;2023-02-11T17:00:37;5.13;;;3.22;;
58360;SDS011;44164;44.954;10.068;2023-02-11T17:03:05;7.47;;;4.00;;
58360;SDS011;44164;44.954;10.068;2023-02-11T17:05:32;4.72;;;3.25;;
58360;SDS011;44164;44.954;10.068;2023-02-11T17:07:58;6.03;;;3.88;;
58360;SDS011;44164;44.954;10.068;2023-02-11T17:12:53;9.65;;;3.63;;
58360;SDS011;44164;44.954;10.068;2023-02-11T17:15:19;5.60;;;3.70;;
58360;SDS011;44164;44.954;10.068;2023-02-11T17:17:45;4.65;;;3.63;;
58360;SDS011;44164;44.954;10.068;2023-02-11T17:20:12;5.43;;;4.00;;
58360;SDS011;44164;44.954;10.068;2023-02-11T17:22:39;4.50;;;3.60;;
58360;SDS011;44164;44.954;10.068;2023-02-11T17:25:05;6.55;;;3.80;;
58360;SDS011;44164;44.954;10.068;2023-02-11T17:27:32;4.75;;;3.92;;
58360;SDS011;44164;44.954;10.068;2023-02-11T17:29:59;5.53;;;3.80;;
58360;SDS011;44164;44.954;10.068;2023-02-11T17:32:25;5.97;;;3.67;;
58360;SDS011;44164;44.954;10.068;2023-02-11T17:34:51;5.03;;;3.67;;
58360;SDS011;44164;44.954;10.068;2023-02-11T17:37:18;5.70;;;3.88;;
58360;SDS011;44164;44.954;10.068;2023-02-11T17:39:44;5.47;;;3.60;;
58360;SDS011;44164;44.954;10.068;2023-02-11T17:42:10;6.32;;;4.25;;
58360;SDS011;44164;44.954;10.068;2023-02-11T17:44:36;9.52;;;4.50;;
58360;SDS011;44164;44.954;10.068;2023-02-11T17:47:03;4.97;;;4.07;;
58360;SDS011;44164;44.954;10.068;2023-02-11T17:49:29;7.32;;;3.83;;
58360;SDS011;44164;44.954;10.068;2023-02-11T17:51:55;5.35;;;3.72;;
58360;SDS011;44164;44.954;10.068;2023-02-11T17:54:21;5.35;;;4.15;;
58360;SDS011;44164;44.954;10.068;2023-02-11T17:56:47;5.68;;;4.15;;